sensor_id;sensor_type;location;lat;lon;timestamp;P1;durP1;ratioP1;P2;durP2;ratioP2
71202;SDS011;58929;47.490;19.090;2022-08-21T00:00:41;7.40;;;2.55;;
71202;SDS011;58929;47.490;19.090;2022-08-21T00:03:10;4.43;;;2.58;;
71202;SDS011;58929;47.490;19.090;2022-08-21T00:05:39;2.75;;;2.45;;
71202;SDS011;58929;47.490;19.090;2022-08-21T00:08:07;6.35;;;2.35;;
71202;SDS011;58929;47.490;19.090;2022-08-21T00:10:38;2.33;;;2.10;;
71202;SDS011;58929;47.490;19.090;2022-08-21T00:13:07;3.28;;;2.40;;
71202;SDS011;58929;47.490;19.090;2022-08-21T00:15:38;3.58;;;2.10;;
71202;SDS011;58929;47.490;19.090;2022-08-21T00:18:10;4.70;;;2.78;;
71202;SDS011;58929;47.490;19.090;2022-08-21T00:20:42;2.95;;;2.50;;
71202;SDS011;58929;47.490;19.090;2022-08-21T00:23:11;5.53;;;2.25;;
71202;SDS011;58929;47.490;19.090;2022-08-21T00:25:39;2.47;;;1.98;;
71202;SDS011;58929;47.490;19.090;2022-08-21T00:28:08;5.53;;;2.72;;
71202;SDS011;58929;47.490;19.090;2022-08-21T00:30:38;2.70;;;2.25;;
71202;SDS011;58929;47.490;19.090;2022-08-21T00:33:06;2.25;;;2.05;;
71202;SDS011;58929;47.490;19.090;2022-08-21T00:35:35;4.20;;;2.20;;
71202;SDS011;58929;47.490;19.090;2022-08-21T00:38:04;6.85;;;2.17;;
71202;SDS011;58929;47.490;19.090;2022-08-21T00:40:33;2.60;;;2.00;;
71202;SDS011;58929;47.490;19.090;2022-08-21T00:43:02;4.43;;;2.22;;
71202;SDS011;58929;47.490;19.090;2022-08-21T00:45:30;4.13;;;2.08;;
71202;SDS011;58929;47.490;19.090;2022-08-21T00:48:00;4.78;;;2.20;;
71202;SDS011;58929;47.490;19.090;2022-08-21T00:50:29;6.00;;;2.67;;
71202;SDS011;58929;47.490;19.090;2022-08-21T00:52:58;2.63;;;2.20;;
71202;SDS011;58929;47.490;19.090;2022-08-21T00:55:27;5.05;;;2.38;;
71202;SDS011;58929;47.490;19.090;2022-08-21T00:57:58;4.32;;;2.40;;
71202;SDS011;58929;47.490;19.090;2022-08-21T01:00:29;2.95;;;2.30;;
71202;SDS011;58929;47.490;19.090;2022-08-21T01:03:01;4.03;;;2.38;;
71202;SDS011;58929;47.490;19.090;2022-08-21T01:05:34;3.83;;;2.90;;
71202;SDS011;58929;47.490;19.090;2022-08-21T01:08:02;3.05;;;2.45;;
71202;SDS011;58929;47.490;19.090;2022-08-21T01:10:30;4.30;;;2.47;;
71202;SDS011;58929;47.490;19.090;2022-08-21T01:12:59;3.38;;;2.40;;
71202;SDS011;58929;47.490;19.090;2022-08-21T01:15:29;4.22;;;2.55;;
71202;SDS011;58929;47.490;19.090;2022-08-21T01:17:58;5.10;;;2.88;;
71202;SDS011;58929;47.490;19.090;2022-08-21T01:20:27;4.25;;;2.70;;
71202;SDS011;58929;47.490;19.090;2022-08-21T01:23:00;4.38;;;3.17;;
71202;SDS011;58929;47.490;19.090;2022-08-21T01:25:28;3.08;;;2.78;;
71202;SDS011;58929;47.490;19.090;2022-08-21T01:27:56;4.65;;;2.92;;
71202;SDS011;58929;47.490;19.090;2022-08-21T01:30:26;3.90;;;3.08;;
71202;SDS011;58929;47.490;19.090;2022-08-21T01:32:54;3.90;;;3.20;;
71202;SDS011;58929;47.490;19.090;2022-08-21T01:35:23;3.88;;;3.33;;
71202;SDS011;58929;47.490;19.090;2022-08-21T01:37:51;3.65;;;3.13;;
71202;SDS011;58929;47.490;19.090;2022-08-21T01:40:21;6.75;;;3.10;;
71202;SDS011;58929;47.490;19.090;2022-08-21T01:42:49;3.53;;;3.17;;
71202;SDS011;58929;47.490;19.090;2022-08-21T01:45:17;4.50;;;3.10;;
71202;SDS011;58929;47.490;19.090;2022-08-21T01:47:45;6.57;;;4.35;;
71202;SDS011;58929;47.490;19.090;2022-08-21T01:50:14;3.67;;;2.85;;
71202;SDS011;58929;47.490;19.090;2022-08-21T01:52:42;3.45;;;2.60;;
71202;SDS011;58929;47.490;19.090;2022-08-21T01:55:11;5.25;;;3.72;;
71202;SDS011;58929;47.490;19.090;2022-08-21T01:57:40;6.32;;;3.50;;
71202;SDS011;58929;47.490;19.090;2022-08-21T02:00:10;4.40;;;3.58;;
71202;SDS011;58929;47.490;19.090;2022-08-21T02:02:39;6.35;;;3.78;;
71202;SDS011;58929;47.490;19.090;2022-08-21T02:05:07;6.25;;;4.45;;
71202;SDS011;58929;47.490;19.090;2022-08-21T02:07:36;5.93;;;4.25;;
71202;SDS011;58929;47.490;19.090;2022-08-21T02:10:05;4.97;;;4.47;;
71202;SDS011;58929;47.490;19.090;2022-08-21T02:12:34;6.32;;;4.53;;
71202;SDS011;58929;47.490;19.090;2022-08-21T02:15:04;4.45;;;4.00;;
71202;SDS011;58929;47.490;19.090;2022-08-21T02:17:42;5.45;;;4.65;;
71202;SDS011;58929;47.490;19.090;2022-08-21T02:22:38;11.45;;;5.80;;
71202;SDS011;58929;47.490;19.090;2022-08-21T02:25:06;8.75;;;4.72;;
71202;SDS011;58929;47.490;19.090;2022-08-21T02:27:37;6.72;;;4.07;;
71202;SDS011;58929;47.490;19.090;2022-08-21T02:30:08;6.07;;;4.15;;
71202;SDS011;58929;47.490;19.090;2022-08-21T02:32:36;8.18;;;4.65;;
71202;SDS011;58929;47.490;19.090;2022-08-21T02:35:04;6.72;;;4.55;;
71202;SDS011;58929;47.490;19.090;2022-08-21T02:37:33;6.10;;;4.43;;
71202;SDS011;58929;47.490;19.090;2022-08-21T02:40:01;8.43;;;4.57;;
71202;SDS011;58929;47.490;19.090;2022-08-21T02:42:29;5.32;;;4.63;;
71202;SDS011;58929;47.490;19.090;2022-08-21T02:44:57;6.90;;;5.30;;
71202;SDS011;58929;47.490;19.090;2022-08-21T02:47:26;6.22;;;4.57;;
71202;SDS011;58929;47.490;19.090;2022-08-21T02:49:54;6.13;;;4.40;;
71202;SDS011;58929;47.490;19.090;2022-08-21T02:52:22;7.00;;;4.43;;
71202;SDS011;58929;47.490;19.090;2022-08-21T02:54:52;6.82;;;4.90;;
71202;SDS011;58929;47.490;19.090;2022-08-21T02:57:21;5.70;;;4.85;;
71202;SDS011;58929;47.490;19.090;2022-08-21T02:59:49;7.28;;;4.80;;
71202;SDS011;58929;47.490;19.090;2022-08-21T03:02:17;9.35;;;5.22;;
71202;SDS011;58929;47.490;19.090;2022-08-21T03:04:46;7.25;;;5.57;;
71202;SDS011;58929;47.490;19.090;2022-08-21T03:07:14;6.10;;;5.30;;
71202;SDS011;58929;47.490;19.090;2022-08-21T03:09:42;7.95;;;5.47;;
71202;SDS011;58929;47.490;19.090;2022-08-21T03:12:21;5.88;;;5.20;;
71202;SDS011;58929;47.490;19.090;2022-08-21T03:14:49;6.47;;;5.45;;
71202;SDS011;58929;47.490;19.090;2022-08-21T03:17:17;5.50;;;4.05;;
71202;SDS011;58929;47.490;19.090;2022-08-21T03:19:57;7.00;;;5.03;;
71202;SDS011;58929;47.490;19.090;2022-08-21T03:22:25;5.72;;;4.57;;
71202;SDS011;58929;47.490;19.090;2022-08-21T03:24:56;9.02;;;4.85;;
71202;SDS011;58929;47.490;19.090;2022-08-21T03:27:25;6.78;;;5.00;;
71202;SDS011;58929;47.490;19.090;2022-08-21T03:29:55;6.88;;;5.45;;
71202;SDS011;58929;47.490;19.090;2022-08-21T03:32:23;7.35;;;4.72;;
71202;SDS011;58929;47.490;19.090;2022-08-21T03:34:51;5.60;;;4.65;;
71202;SDS011;58929;47.490;19.090;2022-08-21T03:37:21;7.32;;;5.13;;
71202;SDS011;58929;47.490;19.090;2022-08-21T03:39:49;8.43;;;5.47;;
71202;SDS011;58929;47.490;19.090;2022-08-21T03:42:17;6.82;;;5.13;;
71202;SDS011;58929;47.490;19.090;2022-08-21T03:44:45;7.45;;;5.25;;
71202;SDS011;58929;47.490;19.090;2022-08-21T03:47:13;8.32;;;5.75;;
71202;SDS011;58929;47.490;19.090;2022-08-21T03:49:41;8.02;;;4.55;;
71202;SDS011;58929;47.490;19.090;2022-08-21T03:52:09;5.70;;;4.88;;
71202;SDS011;58929;47.490;19.090;2022-08-21T03:54:38;8.32;;;5.22;;
71202;SDS011;58929;47.490;19.090;2022-08-21T03:57:06;7.43;;;5.68;;
71202;SDS011;58929;47.490;19.090;2022-08-21T03:59:35;9.00;;;5.68;;
71202;SDS011;58929;47.490;19.090;2022-08-21T04:02:04;7.95;;;5.72;;
71202;SDS011;58929;47.490;19.090;2022-08-21T04:04:32;8.40;;;6.53;;
71202;SDS011;58929;47.490;19.090;2022-08-21T04:07:00;8.50;;;5.40;;
71202;SDS011;58929;47.490;19.090;2022-08-21T04:09:29;7.13;;;5.57;;
71202;SDS011;58929;47.490;19.090;2022-08-21T04:11:59;9.82;;;6.28;;
71202;SDS011;58929;47.490;19.090;2022-08-21T04:14:27;6.82;;;5.28;;
71202;SDS011;58929;47.490;19.090;2022-08-21T04:16:56;7.10;;;5.50;;
71202;SDS011;58929;47.490;19.090;2022-08-21T04:19:25;9.85;;;6.10;;
71202;SDS011;58929;47.490;19.090;2022-08-21T04:21:53;8.68;;;6.57;;
71202;SDS011;58929;47.490;19.090;2022-08-21T04:24:20;10.13;;;5.80;;
71202;SDS011;58929;47.490;19.090;2022-08-21T04:26:49;7.57;;;5.68;;
71202;SDS011;58929;47.490;19.090;2022-08-21T04:29:21;7.75;;;5.93;;
71202;SDS011;58929;47.490;19.090;2022-08-21T04:31:49;8.50;;;5.65;;
71202;SDS011;58929;47.490;19.090;2022-08-21T04:34:18;9.63;;;6.55;;
71202;SDS011;58929;47.490;19.090;2022-08-21T04:36:46;10.05;;;6.55;;
71202;SDS011;58929;47.490;19.090;2022-08-21T04:39:14;6.95;;;6.25;;
71202;SDS011;58929;47.490;19.090;2022-08-21T04:41:42;7.78;;;6.13;;
71202;SDS011;58929;47.490;19.090;2022-08-21T04:44:10;8.02;;;5.65;;
71202;SDS011;58929;47.490;19.090;2022-08-21T04:46:40;9.02;;;6.43;;
71202;SDS011;58929;47.490;19.090;2022-08-21T04:49:08;9.70;;;6.53;;
71202;SDS011;58929;47.490;19.090;2022-08-21T04:51:36;6.60;;;5.43;;
71202;SDS011;58929;47.490;19.090;2022-08-21T04:54:06;10.43;;;6.05;;
71202;SDS011;58929;47.490;19.090;2022-08-21T04:56:35;6.25;;;5.65;;
71202;SDS011;58929;47.490;19.090;2022-08-21T04:59:13;7.13;;;6.03;;
71202;SDS011;58929;47.490;19.090;2022-08-21T05:01:44;7.97;;;5.82;;
71202;SDS011;58929;47.490;19.090;2022-08-21T05:04:14;7.43;;;5.80;;
71202;SDS011;58929;47.490;19.090;2022-08-21T05:06:43;8.38;;;6.45;;
71202;SDS011;58929;47.490;19.090;2022-08-21T05:09:11;8.07;;;6.20;;
71202;SDS011;58929;47.490;19.090;2022-08-21T05:11:40;6.43;;;5.70;;
71202;SDS011;58929;47.490;19.090;2022-08-21T05:14:09;6.80;;;5.47;;
71202;SDS011;58929;47.490;19.090;2022-08-21T05:16:38;8.10;;;5.55;;
71202;SDS011;58929;47.490;19.090;2022-08-21T05:19:08;8.63;;;6.20;;
71202;SDS011;58929;47.490;19.090;2022-08-21T05:21:39;7.88;;;5.80;;
71202;SDS011;58929;47.490;19.090;2022-08-21T05:24:07;6.22;;;5.30;;
71202;SDS011;58929;47.490;19.090;2022-08-21T05:26:35;5.72;;;4.55;;
71202;SDS011;58929;47.490;19.090;2022-08-21T05:29:12;8.48;;;5.28;;
71202;SDS011;58929;47.490;19.090;2022-08-21T05:31:41;5.35;;;4.78;;
71202;SDS011;58929;47.490;19.090;2022-08-21T05:34:11;7.63;;;5.30;;
71202;SDS011;58929;47.490;19.090;2022-08-21T05:36:42;7.47;;;5.13;;
71202;SDS011;58929;47.490;19.090;2022-08-21T05:39:10;5.93;;;4.78;;
71202;SDS011;58929;47.490;19.090;2022-08-21T05:41:38;5.40;;;4.05;;
71202;SDS011;58929;47.490;19.090;2022-08-21T05:44:06;5.80;;;4.32;;
71202;SDS011;58929;47.490;19.090;2022-08-21T05:46:36;7.65;;;4.72;;
71202;SDS011;58929;47.490;19.090;2022-08-21T05:49:04;5.55;;;4.40;;
71202;SDS011;58929;47.490;19.090;2022-08-21T05:51:33;7.43;;;4.30;;
71202;SDS011;58929;47.490;19.090;2022-08-21T05:54:01;4.70;;;3.45;;
71202;SDS011;58929;47.490;19.090;2022-08-21T05:56:29;7.80;;;4.45;;
71202;SDS011;58929;47.490;19.090;2022-08-21T05:58:58;8.50;;;4.28;;
71202;SDS011;58929;47.490;19.090;2022-08-21T06:01:26;7.07;;;4.25;;
71202;SDS011;58929;47.490;19.090;2022-08-21T06:03:57;5.45;;;4.05;;
71202;SDS011;58929;47.490;19.090;2022-08-21T06:06:27;5.43;;;4.55;;
71202;SDS011;58929;47.490;19.090;2022-08-21T06:08:56;5.22;;;4.15;;
71202;SDS011;58929;47.490;19.090;2022-08-21T06:11:24;7.72;;;4.30;;
71202;SDS011;58929;47.490;19.090;2022-08-21T06:13:54;6.43;;;4.60;;
71202;SDS011;58929;47.490;19.090;2022-08-21T06:16:22;5.65;;;4.13;;
71202;SDS011;58929;47.490;19.090;2022-08-21T06:18:50;5.25;;;3.97;;
71202;SDS011;58929;47.490;19.090;2022-08-21T06:21:18;5.53;;;4.10;;
71202;SDS011;58929;47.490;19.090;2022-08-21T06:23:46;6.03;;;3.85;;
71202;SDS011;58929;47.490;19.090;2022-08-21T06:26:15;5.45;;;4.53;;
71202;SDS011;58929;47.490;19.090;2022-08-21T06:28:43;6.80;;;4.18;;
71202;SDS011;58929;47.490;19.090;2022-08-21T06:31:12;9.27;;;4.45;;
71202;SDS011;58929;47.490;19.090;2022-08-21T06:33:41;10.13;;;4.18;;
71202;SDS011;58929;47.490;19.090;2022-08-21T06:36:09;6.05;;;3.85;;
71202;SDS011;58929;47.490;19.090;2022-08-21T06:38:37;8.30;;;4.10;;
71202;SDS011;58929;47.490;19.090;2022-08-21T06:41:05;7.32;;;4.55;;
71202;SDS011;58929;47.490;19.090;2022-08-21T06:43:37;5.70;;;3.92;;
71202;SDS011;58929;47.490;19.090;2022-08-21T06:46:05;4.50;;;3.75;;
71202;SDS011;58929;47.490;19.090;2022-08-21T06:48:34;7.72;;;4.38;;
71202;SDS011;58929;47.490;19.090;2022-08-21T06:51:02;8.02;;;4.47;;
71202;SDS011;58929;47.490;19.090;2022-08-21T06:53:30;5.70;;;4.72;;
71202;SDS011;58929;47.490;19.090;2022-08-21T06:55:58;8.27;;;4.40;;
71202;SDS011;58929;47.490;19.090;2022-08-21T06:58:26;6.40;;;4.65;;
71202;SDS011;58929;47.490;19.090;2022-08-21T07:00:56;4.95;;;4.05;;
71202;SDS011;58929;47.490;19.090;2022-08-21T07:03:28;8.35;;;4.78;;
71202;SDS011;58929;47.490;19.090;2022-08-21T07:05:56;7.15;;;4.22;;
71202;SDS011;58929;47.490;19.090;2022-08-21T07:08:25;4.90;;;3.95;;
71202;SDS011;58929;47.490;19.090;2022-08-21T07:10:53;8.43;;;4.18;;
71202;SDS011;58929;47.490;19.090;2022-08-21T07:13:22;7.50;;;4.75;;
71202;SDS011;58929;47.490;19.090;2022-08-21T07:15:50;5.68;;;4.60;;
71202;SDS011;58929;47.490;19.090;2022-08-21T07:18:20;6.85;;;4.97;;
71202;SDS011;58929;47.490;19.090;2022-08-21T07:20:47;4.45;;;3.75;;
71202;SDS011;58929;47.490;19.090;2022-08-21T07:23:18;6.13;;;3.90;;
71202;SDS011;58929;47.490;19.090;2022-08-21T07:25:49;8.18;;;4.05;;
71202;SDS011;58929;47.490;19.090;2022-08-21T07:28:17;4.95;;;4.28;;
71202;SDS011;58929;47.490;19.090;2022-08-21T07:30:45;7.03;;;4.13;;
71202;SDS011;58929;47.490;19.090;2022-08-21T07:33:13;4.70;;;4.25;;
71202;SDS011;58929;47.490;19.090;2022-08-21T07:35:42;5.82;;;4.18;;
71202;SDS011;58929;47.490;19.090;2022-08-21T07:38:11;5.90;;;4.47;;
71202;SDS011;58929;47.490;19.090;2022-08-21T07:40:39;5.03;;;4.18;;
71202;SDS011;58929;47.490;19.090;2022-08-21T07:43:07;8.50;;;4.90;;
71202;SDS011;58929;47.490;19.090;2022-08-21T07:45:35;5.22;;;4.40;;
71202;SDS011;58929;47.490;19.090;2022-08-21T07:48:03;5.70;;;4.63;;
71202;SDS011;58929;47.490;19.090;2022-08-21T07:50:31;5.10;;;4.03;;
71202;SDS011;58929;47.490;19.090;2022-08-21T07:53:01;5.72;;;4.15;;
71202;SDS011;58929;47.490;19.090;2022-08-21T07:55:29;4.07;;;3.38;;
71202;SDS011;58929;47.490;19.090;2022-08-21T07:57:57;8.82;;;4.05;;
71202;SDS011;58929;47.490;19.090;2022-08-21T08:00:27;8.15;;;4.57;;
71202;SDS011;58929;47.490;19.090;2022-08-21T08:02:55;4.63;;;4.00;;
71202;SDS011;58929;47.490;19.090;2022-08-21T08:05:25;6.25;;;3.72;;
71202;SDS011;58929;47.490;19.090;2022-08-21T08:07:54;6.05;;;4.45;;
71202;SDS011;58929;47.490;19.090;2022-08-21T08:10:23;5.18;;;4.18;;
71202;SDS011;58929;47.490;19.090;2022-08-21T08:12:51;6.13;;;4.18;;
71202;SDS011;58929;47.490;19.090;2022-08-21T08:15:22;5.32;;;4.10;;
71202;SDS011;58929;47.490;19.090;2022-08-21T08:17:50;4.75;;;4.13;;
71202;SDS011;58929;47.490;19.090;2022-08-21T08:20:18;6.22;;;3.85;;
71202;SDS011;58929;47.490;19.090;2022-08-21T08:22:47;5.10;;;4.60;;
71202;SDS011;58929;47.490;19.090;2022-08-21T08:25:16;6.40;;;3.85;;
71202;SDS011;58929;47.490;19.090;2022-08-21T08:27:46;6.78;;;4.55;;
71202;SDS011;58929;47.490;19.090;2022-08-21T08:30:14;4.63;;;4.22;;
71202;SDS011;58929;47.490;19.090;2022-08-21T08:32:42;4.97;;;3.92;;
71202;SDS011;58929;47.490;19.090;2022-08-21T08:35:11;9.02;;;4.53;;
71202;SDS011;58929;47.490;19.090;2022-08-21T08:37:39;4.38;;;3.90;;
71202;SDS011;58929;47.490;19.090;2022-08-21T08:40:10;5.68;;;3.83;;
71202;SDS011;58929;47.490;19.090;2022-08-21T08:42:39;14.13;;;4.82;;
71202;SDS011;58929;47.490;19.090;2022-08-21T08:45:09;19.23;;;4.97;;
71202;SDS011;58929;47.490;19.090;2022-08-21T08:47:38;49.47;;;6.95;;
71202;SDS011;58929;47.490;19.090;2022-08-21T08:50:08;15.07;;;4.97;;
71202;SDS011;58929;47.490;19.090;2022-08-21T08:52:40;18.70;;;5.53;;
71202;SDS011;58929;47.490;19.090;2022-08-21T08:55:11;29.67;;;6.63;;
71202;SDS011;58929;47.490;19.090;2022-08-21T08:57:42;16.27;;;4.65;;
71202;SDS011;58929;47.490;19.090;2022-08-21T09:00:18;5.70;;;4.10;;
71202;SDS011;58929;47.490;19.090;2022-08-21T09:02:46;9.68;;;4.30;;
71202;SDS011;58929;47.490;19.090;2022-08-21T09:05:19;7.43;;;4.45;;
71202;SDS011;58929;47.490;19.090;2022-08-21T09:07:51;6.40;;;4.50;;
71202;SDS011;58929;47.490;19.090;2022-08-21T09:10:22;7.72;;;4.63;;
71202;SDS011;58929;47.490;19.090;2022-08-21T09:12:55;9.35;;;4.03;;
71202;SDS011;58929;47.490;19.090;2022-08-21T09:15:28;5.65;;;4.38;;
71202;SDS011;58929;47.490;19.090;2022-08-21T09:18:10;4.93;;;4.03;;
71202;SDS011;58929;47.490;19.090;2022-08-21T09:20:46;6.72;;;5.40;;
71202;SDS011;58929;47.490;19.090;2022-08-21T09:23:18;10.02;;;4.80;;
71202;SDS011;58929;47.490;19.090;2022-08-21T09:25:52;5.25;;;4.38;;
71202;SDS011;58929;47.490;19.090;2022-08-21T09:28:22;6.90;;;4.32;;
71202;SDS011;58929;47.490;19.090;2022-08-21T09:30:51;7.35;;;4.82;;
71202;SDS011;58929;47.490;19.090;2022-08-21T09:33:21;8.50;;;5.95;;
71202;SDS011;58929;47.490;19.090;2022-08-21T09:35:50;7.32;;;4.70;;
71202;SDS011;58929;47.490;19.090;2022-08-21T09:38:26;4.93;;;4.35;;
71202;SDS011;58929;47.490;19.090;2022-08-21T09:40:56;8.20;;;4.35;;
71202;SDS011;58929;47.490;19.090;2022-08-21T09:43:24;5.53;;;4.28;;
71202;SDS011;58929;47.490;19.090;2022-08-21T09:46:07;7.43;;;5.55;;
71202;SDS011;58929;47.490;19.090;2022-08-21T09:48:41;11.98;;;5.95;;
71202;SDS011;58929;47.490;19.090;2022-08-21T09:51:09;6.57;;;4.45;;
71202;SDS011;58929;47.490;19.090;2022-08-21T09:53:38;5.47;;;4.43;;
71202;SDS011;58929;47.490;19.090;2022-08-21T09:56:16;8.70;;;5.93;;
71202;SDS011;58929;47.490;19.090;2022-08-21T09:59:12;8.77;;;4.65;;
71202;SDS011;58929;47.490;19.090;2022-08-21T10:01:44;6.15;;;4.57;;
71202;SDS011;58929;47.490;19.090;2022-08-21T10:04:13;6.85;;;5.10;;
71202;SDS011;58929;47.490;19.090;2022-08-21T10:06:41;5.55;;;4.75;;
71202;SDS011;58929;47.490;19.090;2022-08-21T10:09:11;9.40;;;4.90;;
71202;SDS011;58929;47.490;19.090;2022-08-21T10:11:49;5.75;;;4.75;;
71202;SDS011;58929;47.490;19.090;2022-08-21T10:14:30;6.95;;;5.32;;
71202;SDS011;58929;47.490;19.090;2022-08-21T10:17:11;6.15;;;4.45;;
71202;SDS011;58929;47.490;19.090;2022-08-21T10:19:42;6.13;;;4.53;;
71202;SDS011;58929;47.490;19.090;2022-08-21T10:22:15;8.43;;;4.50;;
71202;SDS011;58929;47.490;19.090;2022-08-21T10:24:50;9.70;;;5.18;;
71202;SDS011;58929;47.490;19.090;2022-08-21T10:27:22;8.25;;;4.63;;
71202;SDS011;58929;47.490;19.090;2022-08-21T10:29:55;8.10;;;4.55;;
71202;SDS011;58929;47.490;19.090;2022-08-21T10:32:29;8.82;;;4.70;;
71202;SDS011;58929;47.490;19.090;2022-08-21T10:35:02;9.63;;;5.70;;
71202;SDS011;58929;47.490;19.090;2022-08-21T10:37:50;6.70;;;4.00;;
71202;SDS011;58929;47.490;19.090;2022-08-21T10:40:22;6.30;;;4.30;;
71202;SDS011;58929;47.490;19.090;2022-08-21T10:42:57;9.00;;;4.63;;
71202;SDS011;58929;47.490;19.090;2022-08-21T10:45:41;4.78;;;4.03;;
71202;SDS011;58929;47.490;19.090;2022-08-21T10:48:14;5.90;;;4.43;;
71202;SDS011;58929;47.490;19.090;2022-08-21T10:50:44;7.30;;;5.40;;
71202;SDS011;58929;47.490;19.090;2022-08-21T10:53:28;7.25;;;5.07;;
71202;SDS011;58929;47.490;19.090;2022-08-21T10:56:01;7.82;;;5.13;;
71202;SDS011;58929;47.490;19.090;2022-08-21T10:58:30;7.30;;;4.40;;
71202;SDS011;58929;47.490;19.090;2022-08-21T11:01:00;6.15;;;4.85;;
71202;SDS011;58929;47.490;19.090;2022-08-21T11:03:34;8.43;;;4.90;;
71202;SDS011;58929;47.490;19.090;2022-08-21T11:06:07;6.85;;;4.30;;
71202;SDS011;58929;47.490;19.090;2022-08-21T11:08:38;7.18;;;4.78;;
71202;SDS011;58929;47.490;19.090;2022-08-21T11:11:10;7.10;;;5.07;;
71202;SDS011;58929;47.490;19.090;2022-08-21T11:13:46;5.63;;;4.63;;
71202;SDS011;58929;47.490;19.090;2022-08-21T11:16:17;7.22;;;4.72;;
71202;SDS011;58929;47.490;19.090;2022-08-21T11:18:49;7.10;;;4.85;;
71202;SDS011;58929;47.490;19.090;2022-08-21T11:21:25;7.68;;;4.60;;
71202;SDS011;58929;47.490;19.090;2022-08-21T11:23:57;7.28;;;4.70;;
71202;SDS011;58929;47.490;19.090;2022-08-21T11:26:32;10.40;;;4.53;;
71202;SDS011;58929;47.490;19.090;2022-08-21T11:29:04;7.13;;;4.55;;
71202;SDS011;58929;47.490;19.090;2022-08-21T11:31:39;8.98;;;4.60;;
71202;SDS011;58929;47.490;19.090;2022-08-21T11:34:13;10.20;;;5.22;;
71202;SDS011;58929;47.490;19.090;2022-08-21T11:36:44;14.18;;;5.53;;
71202;SDS011;58929;47.490;19.090;2022-08-21T11:39:16;13.45;;;5.60;;
71202;SDS011;58929;47.490;19.090;2022-08-21T11:41:46;7.97;;;6.10;;
71202;SDS011;58929;47.490;19.090;2022-08-21T11:44:17;7.40;;;6.68;;
71202;SDS011;58929;47.490;19.090;2022-08-21T11:46:49;6.85;;;5.90;;
71202;SDS011;58929;47.490;19.090;2022-08-21T11:49:27;14.70;;;6.15;;
71202;SDS011;58929;47.490;19.090;2022-08-21T11:51:59;7.18;;;4.38;;
71202;SDS011;58929;47.490;19.090;2022-08-21T11:54:31;13.73;;;5.00;;
71202;SDS011;58929;47.490;19.090;2022-08-21T11:57:03;7.47;;;4.63;;
71202;SDS011;58929;47.490;19.090;2022-08-21T11:59:35;7.05;;;4.03;;
71202;SDS011;58929;47.490;19.090;2022-08-21T12:02:07;7.65;;;4.95;;
71202;SDS011;58929;47.490;19.090;2022-08-21T12:04:44;4.95;;;3.97;;
71202;SDS011;58929;47.490;19.090;2022-08-21T12:07:14;10.52;;;8.80;;
71202;SDS011;58929;47.490;19.090;2022-08-21T12:09:51;5.57;;;4.45;;
71202;SDS011;58929;47.490;19.090;2022-08-21T12:12:24;6.40;;;4.93;;
71202;SDS011;58929;47.490;19.090;2022-08-21T12:15:03;8.38;;;5.07;;
71202;SDS011;58929;47.490;19.090;2022-08-21T12:17:35;6.15;;;4.50;;
71202;SDS011;58929;47.490;19.090;2022-08-21T12:20:16;8.77;;;4.38;;
71202;SDS011;58929;47.490;19.090;2022-08-21T12:22:49;4.25;;;3.80;;
71202;SDS011;58929;47.490;19.090;2022-08-21T12:25:18;7.57;;;5.03;;
71202;SDS011;58929;47.490;19.090;2022-08-21T12:27:47;7.10;;;4.30;;
71202;SDS011;58929;47.490;19.090;2022-08-21T12:30:22;6.38;;;4.25;;
71202;SDS011;58929;47.490;19.090;2022-08-21T12:32:56;5.70;;;4.57;;
71202;SDS011;58929;47.490;19.090;2022-08-21T12:35:27;5.32;;;4.47;;
71202;SDS011;58929;47.490;19.090;2022-08-21T12:38:00;5.93;;;4.90;;
71202;SDS011;58929;47.490;19.090;2022-08-21T12:40:30;7.75;;;4.78;;
71202;SDS011;58929;47.490;19.090;2022-08-21T12:42:59;7.55;;;4.70;;
71202;SDS011;58929;47.490;19.090;2022-08-21T12:45:30;5.60;;;5.00;;
71202;SDS011;58929;47.490;19.090;2022-08-21T12:47:59;7.93;;;5.30;;
71202;SDS011;58929;47.490;19.090;2022-08-21T12:50:32;8.52;;;5.57;;
71202;SDS011;58929;47.490;19.090;2022-08-21T12:53:04;7.90;;;5.45;;
71202;SDS011;58929;47.490;19.090;2022-08-21T12:55:46;15.23;;;8.10;;
71202;SDS011;58929;47.490;19.090;2022-08-21T12:58:18;13.98;;;7.13;;
71202;SDS011;58929;47.490;19.090;2022-08-21T13:00:49;8.30;;;5.93;;
71202;SDS011;58929;47.490;19.090;2022-08-21T13:03:18;12.30;;;5.97;;
71202;SDS011;58929;47.490;19.090;2022-08-21T13:05:49;11.80;;;5.65;;
71202;SDS011;58929;47.490;19.090;2022-08-21T13:08:21;10.40;;;7.20;;
71202;SDS011;58929;47.490;19.090;2022-08-21T13:10:55;12.90;;;6.45;;
71202;SDS011;58929;47.490;19.090;2022-08-21T13:13:25;12.10;;;7.03;;
71202;SDS011;58929;47.490;19.090;2022-08-21T13:15:57;12.25;;;6.43;;
71202;SDS011;58929;47.490;19.090;2022-08-21T13:18:26;9.80;;;6.10;;
71202;SDS011;58929;47.490;19.090;2022-08-21T13:21:04;8.07;;;5.85;;
71202;SDS011;58929;47.490;19.090;2022-08-21T13:23:33;7.65;;;6.20;;
71202;SDS011;58929;47.490;19.090;2022-08-21T13:26:01;10.48;;;6.90;;
71202;SDS011;58929;47.490;19.090;2022-08-21T13:28:33;9.40;;;6.47;;
71202;SDS011;58929;47.490;19.090;2022-08-21T13:31:07;13.43;;;6.20;;
71202;SDS011;58929;47.490;19.090;2022-08-21T13:33:37;9.13;;;7.10;;
71202;SDS011;58929;47.490;19.090;2022-08-21T13:36:09;10.43;;;7.03;;
71202;SDS011;58929;47.490;19.090;2022-08-21T13:38:39;12.07;;;6.75;;
71202;SDS011;58929;47.490;19.090;2022-08-21T13:41:09;11.95;;;7.10;;
71202;SDS011;58929;47.490;19.090;2022-08-21T13:43:43;9.73;;;7.10;;
71202;SDS011;58929;47.490;19.090;2022-08-21T13:46:12;12.30;;;7.30;;
71202;SDS011;58929;47.490;19.090;2022-08-21T13:48:41;12.80;;;7.53;;
71202;SDS011;58929;47.490;19.090;2022-08-21T13:51:11;10.10;;;6.65;;
71202;SDS011;58929;47.490;19.090;2022-08-21T13:53:44;11.48;;;6.80;;
71202;SDS011;58929;47.490;19.090;2022-08-21T13:56:21;7.38;;;6.03;;
71202;SDS011;58929;47.490;19.090;2022-08-21T13:58:49;9.50;;;5.47;;
71202;SDS011;58929;47.490;19.090;2022-08-21T14:01:18;8.55;;;5.70;;
71202;SDS011;58929;47.490;19.090;2022-08-21T14:03:47;9.02;;;7.00;;
71202;SDS011;58929;47.490;19.090;2022-08-21T14:06:18;12.25;;;5.78;;
71202;SDS011;58929;47.490;19.090;2022-08-21T14:08:48;9.20;;;5.45;;
71202;SDS011;58929;47.490;19.090;2022-08-21T14:11:17;10.40;;;6.70;;
71202;SDS011;58929;47.490;19.090;2022-08-21T14:13:46;7.03;;;5.10;;
71202;SDS011;58929;47.490;19.090;2022-08-21T14:16:16;8.68;;;4.65;;
71202;SDS011;58929;47.490;19.090;2022-08-21T14:18:45;6.40;;;4.50;;
71202;SDS011;58929;47.490;19.090;2022-08-21T14:21:14;6.40;;;3.60;;
71202;SDS011;58929;47.490;19.090;2022-08-21T14:24:00;5.05;;;3.63;;
71202;SDS011;58929;47.490;19.090;2022-08-21T14:26:29;4.40;;;3.22;;
71202;SDS011;58929;47.490;19.090;2022-08-21T14:28:58;5.35;;;3.47;;
71202;SDS011;58929;47.490;19.090;2022-08-21T14:31:28;4.05;;;3.22;;
71202;SDS011;58929;47.490;19.090;2022-08-21T14:33:56;4.80;;;3.03;;
71202;SDS011;58929;47.490;19.090;2022-08-21T14:36:24;3.67;;;3.00;;
71202;SDS011;58929;47.490;19.090;2022-08-21T14:38:52;3.33;;;3.00;;
71202;SDS011;58929;47.490;19.090;2022-08-21T14:41:23;2.90;;;2.60;;
71202;SDS011;58929;47.490;19.090;2022-08-21T14:43:52;3.20;;;2.60;;
71202;SDS011;58929;47.490;19.090;2022-08-21T14:46:32;6.60;;;2.92;;
71202;SDS011;58929;47.490;19.090;2022-08-21T14:49:01;4.05;;;3.00;;
71202;SDS011;58929;47.490;19.090;2022-08-21T14:51:29;3.20;;;2.20;;
71202;SDS011;58929;47.490;19.090;2022-08-21T14:53:57;4.50;;;2.80;;